Time;durP1;ratioP1;P1;durP2;ratioP2;P2;SDS_P1;SDS_P2;PMS_P1;PMS_P2;Temp;Humidity;BMP_temperature;BMP_pressure;BME280_temperature;BME280_humidity;BME280_pressure;Samples;Min_cycle;Max_cycle;Signal;HPM_P1;HPM_P2
2022/03/19 00:02:03;;;;;;;155.37;66.95;;;;;;;-3.48;78.92;100410.91;1752132;80;20967;-57
2022/03/19 00:04:30;;;;;;;151.40;71.45;;;;;;;-3.49;78.21;100411.88;1743200;82;21096;-56
2022/03/19 00:06:57;;;;;;;152.32;66.37;;;;;;;-3.51;77.75;100421.27;1743212;81;21244;-57
2022/03/19 00:09:24;;;;;;;152.85;66.57;;;;;;;-3.48;77.54;100417.53;1754954;80;21591;-57
2022/03/19 00:11:52;;;;;;;145.62;66.45;;;;;;;-3.52;78.67;100412.12;1744883;80;21310;-57
2022/03/19 00:14:19;;;;;;;127.50;56.20;;;;;;;-3.55;77.80;100404.45;1743345;82;21077;-57
2022/03/19 00:16:46;;;;;;;149.53;64.20;;;;;;;-3.57;78.18;100403.26;1743047;82;20975;-57
2022/03/19 00:19:13;;;;;;;151.15;68.12;;;;;;;-3.55;77.70;100400.47;1743050;82;20999;-56
2022/03/19 00:21:39;;;;;;;151.42;66.37;;;;;;;-3.56;78.19;100406.26;1743149;82;20990;-57
2022/03/19 00:24:07;;;;;;;146.30;63.70;;;;;;;-3.55;78.92;100401.80;1751112;80;22146;-57
2022/03/19 00:26:34;;;;;;;131.47;57.27;;;;;;;-3.56;79.19;100399.63;1748592;80;20991;-56
2022/03/19 00:29:01;;;;;;;122.72;57.88;;;;;;;-3.55;78.30;100401.31;1742942;82;21170;-57
2022/03/19 00:31:28;;;;;;;126.85;59.77;;;;;;;-3.59;78.11;100396.39;1742840;82;21044;-57
2022/03/19 00:33:55;;;;;;;138.15;62.98;;;;;;;-3.66;79.14;100401.88;1742881;81;21430;-57
2022/03/19 00:36:22;;;;;;;137.03;58.00;;;;;;;-3.69;78.23;100409.09;1742953;82;22090;-56
2022/03/19 00:38:49;;;;;;;138.70;59.05;;;;;;;-3.68;77.04;100403.31;1742799;81;20985;-57
2022/03/19 00:41:16;;;;;;;129.50;59.25;;;;;;;-3.75;78.56;100408.80;1742965;82;21037;-57
2022/03/19 00:43:43;;;;;;;131.45;57.65;;;;;;;-3.81;79.16;100407.50;1742859;82;21006;-57
2022/03/19 00:46:11;;;;;;;124.58;52.93;;;;;;;-3.81;79.23;100403.53;1742968;82;21058;-57
2022/03/19 00:48:39;;;;;;;120.90;56.80;;;;;;;-3.87;80.27;100401.88;1745048;81;21426;-57
2022/03/19 00:51:06;;;;;;;119.17;51.23;;;;;;;-3.87;79.08;100393.92;1746028;81;21007;-56
2022/03/19 00:53:33;;;;;;;121.60;53.78;;;;;;;-3.88;77.67;100402.84;1742897;81;21541;-57
2022/03/19 00:56:00;;;;;;;108.25;48.68;;;;;;;-3.89;77.48;100403.33;1752674;80;20990;-57
2022/03/19 00:58:27;;;;;;;125.55;54.30;;;;;;;-3.93;77.01;100401.05;1743061;82;20990;-57
2022/03/19 01:00:54;;;;;;;124.30;56.13;;;;;;;-4.03;74.89;100395.20;1754988;80;21430;-57
2022/03/19 01:03:20;;;;;;;143.20;62.70;;;;;;;-4.17;74.52;100399.52;1742901;81;20963;-57
2022/03/19 01:05:47;;;;;;;126.35;60.17;;;;;;;-4.24;76.35;100396.17;1753486;80;21616;-57
2022/03/19 01:08:14;;;;;;;136.25;59.77;;;;;;;-4.19;77.80;100411.17;1773723;80;20985;-57
2022/03/19 01:10:42;;;;;;;134.57;59.98;;;;;;;-4.18;79.02;100404.95;1745005;80;21031;-57
2022/03/19 01:13:08;;;;;;;132.82;57.58;;;;;;;-4.18;79.56;100399.64;1743142;81;21409;-57
2022/03/19 01:15:35;;;;;;;116.37;53.42;;;;;;;-4.22;79.23;100392.91;1742993;82;20986;-57
2022/03/19 01:18:02;;;;;;;124.97;53.87;;;;;;;-4.22;77.86;100400.85;1743287;81;20990;-57
2022/03/19 01:20:29;;;;;;;117.20;53.80;;;;;;;-4.23;78.90;100401.34;1743044;82;21002;-56
2022/03/19 01:22:56;;;;;;;109.07;49.98;;;;;;;-4.27;80.00;100396.80;1743337;81;21006;-56
2022/03/19 01:25:23;;;;;;;116.12;54.10;;;;;;;-4.31;79.48;100390.54;1743121;82;22062;-57
2022/03/19 01:27:50;;;;;;;106.15;48.38;;;;;;;-4.35;76.80;100391.29;1743087;81;21509;-57
2022/03/19 01:30:19;;;;;;;108.27;50.90;;;;;;;-4.40;77.24;100388.17;1743007;82;21018;-57
2022/03/19 01:32:46;;;;;;;109.92;54.90;;;;;;;-4.48;79.24;100381.83;1743206;82;20997;-56
2022/03/19 01:35:16;;;;;;;101.18;49.67;;;;;;;-4.55;80.12;100384.12;1752763;81;21564;-57
2022/03/19 01:37:42;;;;;;;108.03;50.40;;;;;;;-4.61;80.84;100385.49;1743046;81;21413;-56
2022/03/19 01:40:10;;;;;;;121.15;51.33;;;;;;;-4.59;78.65;100384.03;1743279;82;21042;-56
2022/03/19 01:42:42;;;;;;;109.05;49.50;;;;;;;-4.66;77.47;100376.23;1743385;81;20987;-56
2022/03/19 01:45:11;;;;;;;102.42;48.73;;;;;;;-4.70;78.74;100368.17;1742739;82;21021;-56
2022/03/19 01:47:38;;;;;;;103.20;48.23;;;;;;;-4.70;77.68;100377.44;1743391;81;21004;-56
2022/03/19 01:50:06;;;;;;;100.35;44.75;;;;;;;-4.67;80.04;100371.91;1743303;82;21445;-56
2022/03/19 01:52:34;;;;;;;108.67;48.83;;;;;;;-4.64;79.67;100368.52;1743240;81;21502;-56
2022/03/19 01:55:01;;;;;;;95.47;47.50;;;;;;;-4.62;79.33;100356.00;1757499;80;21758;-56
2022/03/19 01:57:30;;;;;;;89.52;38.28;;;;;;;-4.67;80.83;100348.09;1743106;82;21022;-56
2022/03/19 01:59:57;;;;;;;91.80;44.23;;;;;;;-4.67;80.69;100334.39;1743310;81;21474;-55
2022/03/19 02:02:25;;;;;;;83.97;43.02;;;;;;;-4.69;82.22;100333.68;1760662;81;21465;-56
2022/03/19 02:04:52;;;;;;;96.80;41.33;;;;;;;-4.65;80.98;100339.55;1751559;81;21002;-56
2022/03/19 02:07:19;;;;;;;83.72;40.45;;;;;;;-4.61;80.31;100335.22;1743327;81;21068;-56
2022/03/19 02:09:46;;;;;;;88.10;42.17;;;;;;;-4.53;78.92;100342.49;1743291;81;20986;-56
2022/03/19 02:12:13;;;;;;;83.82;40.10;;;;;;;-4.51;77.50;100347.20;1771736;80;21024;-56
2022/03/19 02:14:40;;;;;;;91.87;38.63;;;;;;;-4.58;76.99;100343.38;1773880;80;22073;-56
2022/03/19 02:17:09;;;;;;;90.07;43.95;;;;;;;-4.62;76.19;100345.41;1751122;80;21526;-56
2022/03/19 02:19:49;;;;;;;86.17;42.53;;;;;;;-4.69;79.60;100335.48;1743533;82;26517;-56
2022/03/19 02:22:17;;;;;;;79.20;38.53;;;;;;;-4.69;79.91;100331.03;1742575;81;20963;-56
2022/03/19 02:27:31;;;;;;;91.12;41.63;;;;;;;-4.78;80.13;100341.53;1743082;82;22103;-57
2022/03/19 02:29:58;;;;;;;78.92;39.65;;;;;;;-4.84;81.30;100338.41;1743055;81;21435;-56
2022/03/19 02:32:25;;;;;;;80.62;38.80;;;;;;;-4.89;81.13;100346.34;1743077;81;20994;-56
2022/03/19 02:34:54;;;;;;;103.25;43.28;;;;;;;-4.96;80.71;100343.36;1743183;82;20998;-57
2022/03/19 02:37:20;;;;;;;74.27;32.35;;;;;;;-5.02;81.73;100349.64;1743401;81;20993;-56
2022/03/19 02:39:47;;;;;;;93.95;43.08;;;;;;;-5.04;81.74;100351.09;1743294;82;21404;-56
2022/03/19 02:42:19;;;;;;;94.67;44.35;;;;;;;-5.05;81.05;100349.39;1742925;81;21014;-56
2022/03/19 02:44:46;;;;;;;91.37;43.80;;;;;;;-5.06;81.71;100353.00;1743011;82;21014;-56
2022/03/19 02:47:13;;;;;;;86.32;42.70;;;;;;;-5.05;81.60;100357.32;1742962;81;20997;-56
2022/03/19 02:49:40;;;;;;;87.80;40.35;;;;;;;-5.05;80.33;100353.84;1750139;80;21021;-56
2022/03/19 02:52:07;;;;;;;86.00;40.58;;;;;;;-5.08;79.61;100356.73;1742869;81;21264;-55
2022/03/19 02:54:34;;;;;;;92.12;39.33;;;;;;;-5.14;80.79;100358.89;1762057;80;21430;-56
2022/03/19 02:57:01;;;;;;;85.50;39.23;;;;;;;-5.16;79.04;100359.99;1769110;80;21057;-55
2022/03/19 02:59:32;;;;;;;88.45;38.15;;;;;;;-5.21;79.06;100360.38;1761038;80;20998;-55
2022/03/19 03:02:05;;;;;;;77.58;38.25;;;;;;;-5.23;80.57;100355.67;1742516;81;21017;-56
2022/03/19 03:04:32;;;;;;;84.22;38.67;;;;;;;-5.25;81.82;100358.92;1757133;80;21127;-56
2022/03/19 03:07:02;;;;;;;82.95;37.98;;;;;;;-5.21;80.99;100364.83;1747690;80;20986;-56
2022/03/19 03:09:30;;;;;;;86.47;40.43;;;;;;;-5.18;80.18;100364.09;1742970;82;21017;-56
2022/03/19 03:12:02;;;;;;;73.37;36.68;;;;;;;-5.17;81.39;100360.48;1763407;80;20962;-56
2022/03/19 03:14:29;;;;;;;77.75;35.85;;;;;;;-5.20;81.50;100367.34;1760881;80;21081;-56
2022/03/19 03:16:58;;;;;;;75.32;37.88;;;;;;;-5.25;81.39;100370.81;1743054;81;21360;-56
2022/03/19 03:19:25;;;;;;;81.90;39.08;;;;;;;-5.31;81.37;100360.72;1743305;82;20951;-56
2022/03/19 03:21:52;;;;;;;82.25;39.85;;;;;;;-5.39;82.05;100369.73;1743037;81;20994;-56
2022/03/19 03:24:19;;;;;;;82.92;38.95;;;;;;;-5.43;81.79;100370.47;1743392;82;20976;-56
2022/03/19 03:26:46;;;;;;;89.70;42.67;;;;;;;-5.47;82.17;100369.49;1743053;81;21013;-56
2022/03/19 03:29:14;;;;;;;80.05;39.10;;;;;;;-5.56;82.77;100362.28;1743406;82;21611;-56
2022/03/19 03:31:41;;;;;;;78.55;38.65;;;;;;;-5.57;82.63;100366.73;1742740;82;21470;-56
2022/03/19 03:34:08;;;;;;;86.32;42.73;;;;;;;-5.57;81.39;100365.89;1742912;81;20990;-55
2022/03/19 03:36:35;;;;;;;81.28;36.10;;;;;;;-5.64;83.18;100362.88;1743036;82;21018;-56
2022/03/19 03:39:02;;;;;;;64.45;32.13;;;;;;;-5.64;82.96;100364.20;1743005;81;21002;-56
2022/03/19 03:41:29;;;;;;;90.62;39.48;;;;;;;-5.65;81.51;100364.33;1743161;80;22217;-56
2022/03/19 03:43:56;;;;;;;88.47;42.75;;;;;;;-5.74;82.11;100362.76;1742878;81;21499;-56
2022/03/19 03:46:23;;;;;;;80.53;35.98;;;;;;;-5.78;82.52;100356.53;1743081;82;21069;-55
2022/03/19 03:48:49;;;;;;;83.80;37.13;;;;;;;-5.81;81.70;100359.38;1747655;80;21060;-56
2022/03/19 03:51:16;;;;;;;87.85;39.67;;;;;;;-5.85;82.11;100357.95;1760908;80;21001;-56
2022/03/19 03:53:45;;;;;;;80.65;39.33;;;;;;;-5.90;82.67;100364.09;1741751;80;21970;-56
2022/03/19 03:56:12;;;;;;;90.28;42.30;;;;;;;-5.98;83.72;100361.58;1750380;80;21036;-56
2022/03/19 03:58:40;;;;;;;79.97;37.73;;;;;;;-5.98;83.65;100356.30;1773551;80;21469;-56
2022/03/19 04:01:08;;;;;;;58.00;27.95;;;;;;;-6.00;83.97;100350.27;1764057;80;21450;-56
2022/03/19 04:03:35;;;;;;;78.20;39.43;;;;;;;-5.97;82.34;100355.82;1743219;81;21017;-56
2022/03/19 04:06:02;;;;;;;79.35;38.33;;;;;;;-6.01;83.51;100353.88;1743070;82;22097;-56
2022/03/19 04:08:29;;;;;;;75.35;34.35;;;;;;;-5.98;83.88;100351.50;1743026;82;21058;-56
2022/03/19 04:10:56;;;;;;;72.78;34.08;;;;;;;-5.92;83.70;100362.89;1743036;82;20974;-56
2022/03/19 04:13:23;;;;;;;75.80;37.48;;;;;;;-5.91;81.24;100358.45;1742923;81;22036;-56
2022/03/19 04:15:50;;;;;;;88.05;36.83;;;;;;;-5.91;84.30;100356.64;1757178;80;21004;-56
2022/03/19 04:18:17;;;;;;;86.67;38.78;;;;;;;-5.86;84.59;100353.63;1743097;81;22140;-56
2022/03/19 04:20:44;;;;;;;123.07;45.12;;;;;;;-5.84;80.85;100356.51;1752727;80;21029;-56
2022/03/19 04:23:11;;;;;;;77.15;37.98;;;;;;;-5.79;80.73;100363.61;1743038;81;21049;-56
2022/03/19 04:25:38;;;;;;;83.03;37.70;;;;;;;-5.70;80.22;100364.22;1743067;81;20982;-56
2022/03/19 04:28:04;;;;;;;84.52;39.90;;;;;;;-5.69;82.19;100359.30;1742995;82;20990;-56
2022/03/19 04:30:31;;;;;;;78.40;37.53;;;;;;;-5.68;82.31;100353.05;1743201;82;21341;-56
2022/03/19 04:33:04;;;;;;;72.97;32.98;;;;;;;-5.70;82.67;100358.94;1742777;81;20994;-56
2022/03/19 04:38:19;;;;;;;82.42;39.65;;;;;;;-5.82;82.81;100363.83;1743103;81;21005;-56
2022/03/19 04:40:49;;;;;;;91.45;41.48;;;;;;;-5.88;83.02;100363.00;1747808;80;21463;-56
2022/03/19 04:43:16;;;;;;;84.77;41.15;;;;;;;-5.97;83.23;100362.42;1743042;81;21014;-56
2022/03/19 04:45:43;;;;;;;98.55;47.48;;;;;;;-6.03;83.15;100359.76;1757264;80;21002;-55
2022/03/19 04:48:10;;;;;;;181.00;83.03;;;;;;;-6.02;82.78;100357.95;1747247;82;21480;-56
2022/03/19 04:50:40;;;;;;;144.00;66.07;;;;;;;-6.05;82.98;100366.13;1750369;80;21042;-56
2022/03/19 04:53:07;;;;;;;85.87;43.58;;;;;;;-6.06;82.87;100373.20;1742684;81;21048;-56
2022/03/19 04:55:35;;;;;;;96.80;45.45;;;;;;;-6.07;83.46;100369.33;1752603;80;21037;-55
2022/03/19 04:58:03;;;;;;;109.72;47.00;;;;;;;-6.06;83.26;100377.16;1743085;82;21018;-56
2022/03/19 05:00:31;;;;;;;76.07;34.25;;;;;;;-6.03;83.08;100374.76;1743145;82;20967;-55
2022/03/19 05:02:58;;;;;;;86.57;38.40;;;;;;;-6.02;83.33;100373.31;1742914;81;21058;-56
2022/03/19 05:05:25;;;;;;;89.67;46.90;;;;;;;-6.00;83.01;100375.36;1743516;82;21022;-56
2022/03/19 05:07:54;;;;;;;94.47;44.25;;;;;;;-6.00;83.39;100375.84;1742966;81;21719;-56
2022/03/19 05:13:06;;;;;;;102.70;43.87;;;;;;;-5.98;84.22;100365.55;1773572;80;21418;-57
2022/03/19 05:15:34;;;;;;;84.45;41.33;;;;;;;-5.82;83.59;100377.52;1751840;80;21049;-57
2022/03/19 05:18:01;;;;;;;83.62;42.13;;;;;;;-5.77;83.51;100376.21;1742884;82;20989;-57
2022/03/19 05:20:28;;;;;;;108.30;45.45;;;;;;;-5.68;82.40;100379.46;1743133;82;21546;-56
2022/03/19 05:22:55;;;;;;;109.45;49.40;;;;;;;-5.61;81.17;100379.84;1742850;81;21054;-57
2022/03/19 05:25:22;;;;;;;103.92;47.40;;;;;;;-5.60;82.04;100380.19;1743265;82;21057;-57
2022/03/19 05:27:49;;;;;;;98.33;42.95;;;;;;;-5.56;82.55;100372.37;1743045;82;21443;-57
2022/03/19 05:30:16;;;;;;;79.32;38.70;;;;;;;-5.52;82.75;100376.47;1743331;82;21013;-57
2022/03/19 05:32:43;;;;;;;104.45;51.73;;;;;;;-5.57;83.13;100378.63;1742969;81;21396;-57
2022/03/19 05:35:09;;;;;;;93.05;44.33;;;;;;;-5.67;82.51;100377.66;1745840;80;20963;-57
2022/03/19 05:37:36;;;;;;;114.52;59.48;;;;;;;-5.74;82.33;100383.05;1745042;80;21238;-57
2022/03/19 05:40:08;;;;;;;92.85;46.37;;;;;;;-5.71;81.64;100382.35;1744559;80;21506;-56
2022/03/19 05:42:36;;;;;;;91.87;45.65;;;;;;;-5.68;82.12;100387.39;1773704;80;20965;-56
2022/03/19 05:45:04;;;;;;;87.97;45.25;;;;;;;-5.77;82.85;100386.78;1753618;80;22111;-56
2022/03/19 05:47:31;;;;;;;103.78;49.58;;;;;;;-5.71;82.89;100383.67;1745803;81;21482;-56
2022/03/19 05:49:57;;;;;;;105.40;54.30;;;;;;;-5.61;81.92;100386.44;1743198;80;20971;-56
2022/03/19 05:52:24;;;;;;;106.20;49.45;;;;;;;-5.53;82.22;100394.61;1747133;80;21479;-59
2022/03/19 05:54:51;;;;;;;100.27;52.30;;;;;;;-5.43;81.23;100395.58;1743044;80;20989;-57
2022/03/19 05:57:19;;;;;;;99.75;49.60;;;;;;;-5.35;81.57;100390.17;1742923;81;21400;-57
2022/03/19 05:59:46;;;;;;;99.92;51.85;;;;;;;-5.26;81.30;100391.61;1743030;82;21006;-56
2022/03/19 06:02:12;;;;;;;102.20;52.55;;;;;;;-5.16;82.29;100392.55;1742919;81;21002;-57
2022/03/19 06:04:39;;;;;;;107.12;48.95;;;;;;;-4.99;81.48;100390.38;1743119;82;21038;-56
2022/03/19 06:07:06;;;;;;;106.50;51.65;;;;;;;-4.86;80.72;100398.54;1743079;81;20994;-57
2022/03/19 06:09:34;;;;;;;102.92;52.25;;;;;;;-4.65;80.78;100401.24;1742935;82;22238;-56
2022/03/19 06:12:01;;;;;;;97.78;49.93;;;;;;;-4.48;80.88;100404.33;1742772;81;21053;-57
2022/03/19 06:14:27;;;;;;;90.30;42.00;;;;;;;-4.32;81.08;100400.30;1743035;82;21006;-56
2022/03/19 06:16:54;;;;;;;95.32;46.88;;;;;;;-4.16;79.01;100404.33;1742930;81;21061;-56
2022/03/19 06:19:21;;;;;;;108.17;58.02;;;;;;;-4.14;78.79;100396.59;1743371;82;21018;-57
2022/03/19 06:21:48;;;;;;;135.30;64.37;;;;;;;-4.07;79.55;100396.94;1743081;81;22087;-56
2022/03/19 06:24:15;;;;;;;93.70;45.48;;;;;;;-3.93;79.35;100397.08;1743265;82;21439;-57
2022/03/19 06:26:42;;;;;;;129.30;58.58;;;;;;;-3.79;78.76;100397.61;1743190;82;21010;-56
2022/03/19 06:29:09;;;;;;;134.63;66.70;;;;;;;-3.73;78.63;100402.87;1742956;82;21025;-56
2022/03/19 06:31:36;;;;;;;142.68;66.42;;;;;;;-3.62;78.38;100396.17;1743161;82;21045;-56
2022/03/19 06:34:03;;;;;;;123.75;54.15;;;;;;;-3.51;78.26;100408.02;1743009;81;21258;-56
2022/03/19 06:39:15;;;;;;;126.35;59.40;;;;;;;-3.40;77.33;100413.74;1742922;82;21439;-57
2022/03/19 06:41:41;;;;;;;102.27;48.83;;;;;;;-3.34;77.13;100415.00;1743088;82;21113;-57
2022/03/19 06:44:08;;;;;;;96.90;49.98;;;;;;;-3.23;76.96;100414.45;1751702;80;20994;-56
2022/03/19 06:46:35;;;;;;;105.37;51.70;;;;;;;-3.16;76.78;100409.45;1748386;80;21398;-56
2022/03/19 06:49:02;;;;;;;106.85;48.92;;;;;;;-3.08;77.63;100406.95;1748541;81;20989;-56
2022/03/19 06:51:29;;;;;;;98.30;48.40;;;;;;;-2.96;77.64;100409.87;1742895;82;21445;-56
2022/03/19 06:53:56;;;;;;;87.47;42.60;;;;;;;-2.82;77.47;100412.61;1742884;81;21019;-57
2022/03/19 06:56:23;;;;;;;93.58;44.80;;;;;;;-2.72;77.04;100408.68;1743170;82;21009;-57
2022/03/19 06:58:50;;;;;;;115.72;55.00;;;;;;;-2.61;77.04;100404.08;1742794;81;21458;-57
2022/03/19 07:01:16;;;;;;;99.80;49.98;;;;;;;-2.44;77.05;100403.89;1743076;82;21010;-57
2022/03/19 07:03:47;;;;;;;97.88;48.58;;;;;;;-2.34;76.17;100396.77;1746293;80;21097;-57
2022/03/19 07:06:15;;;;;;;113.15;52.88;;;;;;;-2.02;76.45;100397.82;1752670;80;22044;-57
2022/03/19 07:08:43;;;;;;;93.37;48.52;;;;;;;-1.87;76.02;100399.56;1742975;82;21046;-56
2022/03/19 07:11:10;;;;;;;96.47;45.92;;;;;;;-1.35;75.47;100394.67;1742617;82;22175;-57
2022/03/19 07:13:37;;;;;;;98.72;49.95;;;;;;;-0.54;72.38;100394.81;1742586;82;21002;-57
2022/03/19 07:16:06;;;;;;;84.87;46.65;;;;;;;0.39;73.69;100384.61;1742947;82;21064;-56
2022/03/19 07:18:33;;;;;;;79.42;45.75;;;;;;;1.21;71.76;100391.21;1742879;81;21092;-57
2022/03/19 07:21:00;;;;;;;80.60;46.88;;;;;;;2.01;70.18;100384.84;1743125;82;21026;-57
2022/03/19 07:23:27;;;;;;;82.42;50.28;;;;;;;2.67;65.16;100385.10;1742841;81;21948;-57
2022/03/19 07:25:59;;;;;;;81.53;52.08;;;;;;;3.47;63.00;100385.77;1742738;82;21526;-57
2022/03/19 07:28:23;;;;;;;90.28;51.25;;;;;;;3.96;57.25;100388.14;1742476;81;21065;-57
2022/03/19 07:30:50;;;;;;;80.50;52.35;;;;;;;4.53;55.87;100381.77;1742997;82;21365;-57
2022/03/19 07:33:17;;;;;;;88.30;57.33;;;;;;;5.29;56.86;100379.69;1742780;82;21482;-57
2022/03/19 07:35:44;;;;;;;89.67;51.70;;;;;;;5.95;58.78;100376.93;1748038;80;21396;-57
2022/03/19 07:38:11;;;;;;;76.45;50.38;;;;;;;6.16;55.03;100376.94;1742813;82;20990;-57
2022/03/19 07:43:24;;;;;;;73.97;47.65;;;;;;;7.11;52.60;100376.86;1742770;81;20998;-57
2022/03/19 07:45:52;;;;;;;72.27;44.93;;;;;;;8.06;55.43;100373.71;1748828;80;21034;-58
2022/03/19 07:48:20;;;;;;;74.42;51.42;;;;;;;8.26;50.34;100375.06;1754823;80;49289;-57
2022/03/19 07:50:47;;;;;;;73.55;47.23;;;;;;;8.72;46.99;100375.92;1749177;80;20979;-57
2022/03/19 07:53:14;;;;;;;72.65;47.30;;;;;;;9.32;49.98;100376.58;1754646;80;21020;-57
2022/03/19 07:55:41;;;;;;;72.82;48.25;;;;;;;9.95;50.44;100374.99;1748036;80;21060;-57
2022/03/19 07:58:07;;;;;;;85.62;54.13;;;;;;;10.32;42.73;100367.86;1715907;82;21508;-57
2022/03/19 08:00:34;;;;;;;69.95;47.85;;;;;;;10.85;47.31;100369.58;1747127;80;21409;-57
2022/03/19 08:03:01;;;;;;;69.85;50.60;;;;;;;10.94;43.38;100366.05;1742680;82;20989;-57
2022/03/19 08:05:28;;;;;;;77.32;51.70;;;;;;;10.03;35.88;100364.73;1742947;82;20982;-57
2022/03/19 08:07:55;;;;;;;146.45;85.17;;;;;;;11.37;43.71;100374.11;1742778;81;21260;-57
2022/03/19 08:10:24;;;;;;;72.50;49.70;;;;;;;12.20;43.02;100368.46;1747861;80;22002;-58
2022/03/19 08:12:51;;;;;;;76.95;48.15;;;;;;;11.49;34.86;100374.16;1748805;80;21389;-57
2022/03/19 08:15:18;;;;;;;63.50;45.05;;;;;;;11.82;37.58;100369.14;1718154;82;21104;-57
2022/03/19 08:17:45;;;;;;;68.07;45.63;;;;;;;12.11;35.90;100367.44;1742868;80;21026;-57
2022/03/19 08:20:12;;;;;;;59.63;42.08;;;;;;;12.33;38.75;100365.55;1748664;80;20981;-58
2022/03/19 08:22:39;;;;;;;66.67;44.85;;;;;;;13.32;38.54;100363.73;1715994;82;21245;-57
2022/03/19 08:25:07;;;;;;;60.33;40.92;;;;;;;13.66;37.51;100352.95;1756922;80;22037;-58
2022/03/19 08:27:34;;;;;;;59.55;42.30;;;;;;;14.04;35.77;100355.03;1742931;82;21451;-57
2022/03/19 08:30:03;;;;;;;57.27;40.55;;;;;;;13.33;30.34;100358.60;1742678;82;21042;-58
2022/03/19 08:32:30;;;;;;;;;;;;;;;13.12;33.23;100353.22;1745473;82;21006;-58
2022/03/19 08:34:57;;;;;;;56.05;39.30;;;;;;;13.90;29.30;100353.68;1744664;80;20179;-57
2022/03/19 08:37:24;;;;;;;54.95;38.15;;;;;;;13.92;27.83;100360.53;1752155;80;21028;-57
2022/03/19 08:42:36;;;;;;;55.48;37.83;;;;;;;15.17;31.49;100349.70;1744701;80;21065;-58
2022/03/19 08:45:05;;;;;;;58.40;41.65;;;;;;;16.16;30.83;100342.34;1758978;80;21215;-58
2022/03/19 08:47:32;;;;;;;54.27;40.40;;;;;;;16.71;29.90;100335.66;1744543;81;22078;-58
2022/03/19 08:50:00;;;;;;;55.67;39.42;;;;;;;17.00;29.56;100332.81;1754482;80;21409;-58
2022/03/19 08:52:27;;;;;;;53.47;39.23;;;;;;;17.66;29.21;100339.10;1742871;81;21014;-58
2022/03/19 08:54:54;;;;;;;52.73;38.23;;;;;;;18.00;28.26;100343.03;1746548;80;21005;-58
2022/03/19 08:57:21;;;;;;;71.15;45.43;;;;;;;18.41;27.60;100343.61;1741835;82;21006;-58
2022/03/19 08:59:48;;;;;;;51.92;40.83;;;;;;;19.17;26.05;100331.13;1741837;82;21013;-58
2022/03/19 09:02:15;;;;;;;52.88;37.88;;;;;;;18.06;25.25;100338.39;1741784;80;21997;-57
2022/03/19 09:04:42;;;;;;;48.58;33.63;;;;;;;18.18;23.14;100333.45;1741781;82;21001;-58
2022/03/19 09:07:09;;;;;;;43.08;31.05;;;;;;;16.05;20.80;100340.86;1747650;80;21524;-58
2022/03/19 09:09:36;;;;;;;45.12;30.52;;;;;;;15.91;21.01;100336.09;1756981;80;20993;-57
2022/03/19 09:12:04;;;;;;;44.58;32.15;;;;;;;12.25;24.28;100340.89;1773318;80;20997;-57
2022/03/19 09:14:31;;;;;;;50.70;34.43;;;;;;;11.98;27.09;100336.95;1773381;80;21803;-57
2022/03/19 09:16:58;;;;;;;55.63;37.63;;;;;;;11.00;28.15;100344.25;1747877;80;20990;-57
2022/03/19 09:19:27;;;;;;;53.33;34.43;;;;;;;10.47;29.26;100341.27;1749635;80;21068;-57
2022/03/19 09:21:54;;;;;;;54.05;33.02;;;;;;;9.39;29.53;100341.87;1747623;80;21013;-57
2022/03/19 09:24:21;;;;;;;52.20;31.62;;;;;;;8.51;30.07;100330.72;1751206;80;21014;-57
2022/03/19 09:26:49;;;;;;;60.05;34.05;;;;;;;7.50;30.89;100334.88;1746309;80;21311;-57
2022/03/19 09:29:15;;;;;;;45.60;27.52;;;;;;;7.58;31.38;100330.12;1744183;80;21056;-57
2022/03/19 09:31:42;;;;;;;46.48;27.05;;;;;;;6.63;31.76;100336.88;1751133;80;20993;-56
2022/03/19 09:34:10;;;;;;;50.08;28.32;;;;;;;6.44;32.09;100333.85;1746705;80;21449;-57
2022/03/19 09:36:37;;;;;;;42.95;26.60;;;;;;;6.07;32.37;100334.20;1751538;80;21445;-57
2022/03/19 09:39:04;;;;;;;51.10;26.35;;;;;;;6.03;32.42;100328.87;1745955;80;21569;-57
2022/03/19 09:41:31;;;;;;;54.03;26.23;;;;;;;6.03;32.55;100327.52;1747789;80;20977;-57
2022/03/19 09:43:59;;;;;;;42.15;23.22;;;;;;;5.91;33.18;100320.50;1742718;81;21049;-57
2022/03/19 09:46:26;;;;;;;45.70;21.85;;;;;;;5.90;32.61;100322.36;1748183;80;21061;-57
2022/03/19 09:48:53;;;;;;;42.13;21.82;;;;;;;5.90;32.49;100327.73;1742719;81;20992;-57
2022/03/19 09:51:21;;;;;;;49.80;23.62;;;;;;;5.99;32.50;100316.33;1754205;80;21284;-57
2022/03/19 09:53:48;;;;;;;38.40;22.90;;;;;;;6.04;31.16;100325.97;1759100;80;21014;-57
2022/03/19 09:56:16;;;;;;;37.98;21.00;;;;;;;6.04;31.16;100325.97;1747601;80;22233;-57
2022/03/19 09:58:43;;;;;;;40.98;23.22;;;;;;;6.20;31.48;100308.71;1742788;82;21057;-57
2022/03/19 10:01:10;;;;;;;39.38;21.05;;;;;;;6.28;31.50;100314.47;1743144;82;21057;-57
2022/03/19 10:03:40;;;;;;;38.98;21.45;;;;;;;6.35;31.48;100316.18;1742915;81;21006;-57
2022/03/19 10:08:57;;;;;;;34.10;20.45;;;;;;;6.28;30.48;100321.20;1742925;81;21026;-57
2022/03/19 10:11:35;;;;;;;37.98;21.10;;;;;;;6.47;31.10;100317.29;1743056;82;21275;-57
2022/03/19 10:14:10;;;;;;;36.30;21.17;;;;;;;6.53;30.96;100322.41;1742825;81;21007;-57
2022/03/19 10:16:35;;;;;;;42.95;24.12;;;;;;;6.64;31.04;100323.20;1742131;82;21654;-57
2022/03/19 10:19:04;;;;;;;46.08;24.18;;;;;;;6.48;30.26;100320.30;1742764;81;21026;-57
2022/03/19 10:21:36;;;;;;;;;;;;;;;6.52;30.97;100314.02;1745866;82;20974;-57
2022/03/19 10:24:10;;;;;;;38.48;21.20;;;;;;;6.38;30.67;100312.25;1743008;81;20438;-57
2022/03/19 10:26:37;;;;;;;51.70;24.57;;;;;;;6.42;31.30;100310.84;1741714;80;21537;-57
2022/03/19 10:29:07;;;;;;;37.15;20.23;;;;;;;6.47;31.95;100315.11;1742879;81;21005;-57
2022/03/19 10:31:44;;;;;;;;;;;;;;;6.35;30.98;100315.35;1750784;80;20990;-57
2022/03/19 10:34:10;;;;;;;25.75;14.73;;;;;;;6.48;31.53;100313.56;1742790;80;20154;-57
2022/03/19 10:36:39;;;;;;;24.87;12.33;;;;;;;6.68;31.42;100311.01;1742926;82;20954;-57
2022/03/19 10:39:27;;;;;;;46.37;20.32;;;;;;;6.79;30.12;100303.70;1742893;81;21005;-56
2022/03/19 10:41:55;;;;;;;38.28;23.00;;;;;;;6.91;29.75;100312.56;1753348;80;21744;-57
2022/03/19 10:44:26;;;;;;;31.82;16.27;;;;;;;6.75;30.57;100305.15;1761912;80;21053;-56
2022/03/19 10:46:56;;;;;;;38.28;22.52;;;;;;;6.77;30.26;100303.08;1759980;80;21478;-57
2022/03/19 10:49:26;;;;;;;40.95;19.85;;;;;;;6.79;30.56;100302.88;1723796;80;21017;-56
2022/03/19 10:51:55;;;;;;;38.90;21.60;;;;;;;6.76;30.24;100301.94;1747389;80;21529;-57
2022/03/19 10:54:22;;;;;;;38.55;21.55;;;;;;;6.82;30.83;100300.28;1748055;80;22602;-57
2022/03/19 10:56:51;;;;;;;34.35;19.73;;;;;;;6.64;30.21;100299.47;1753055;80;21482;-56
2022/03/19 10:59:18;;;;;;;33.67;21.62;;;;;;;6.77;30.64;100293.64;1747130;80;21005;-56
2022/03/19 11:01:49;;;;;;;33.73;19.32;;;;;;;6.73;30.22;100286.14;1742849;80;21053;-56
2022/03/19 11:04:15;;;;;;;30.82;14.98;;;;;;;6.74;29.85;100290.50;1753598;80;21002;-56
2022/03/19 11:06:45;;;;;;;32.25;17.02;;;;;;;6.99;30.06;100286.78;1751856;80;21459;-56
2022/03/19 11:09:14;;;;;;;26.73;14.70;;;;;;;7.16;30.08;100288.61;1746745;80;21009;-56
2022/03/19 11:11:59;;;;;;;29.37;14.18;;;;;;;7.29;29.30;100283.27;1744841;80;20998;-57
2022/03/19 11:14:28;;;;;;;31.55;18.45;;;;;;;7.24;29.63;100294.65;1741416;82;21053;-56
2022/03/19 11:17:25;;;;;;;30.75;18.90;;;;;;;7.25;29.51;100278.78;1751522;80;21092;-56
2022/03/19 11:20:04;;;;;;;36.80;19.25;;;;;;;7.35;30.04;100280.59;1751082;80;22020;-56
2022/03/19 11:22:41;;;;;;;32.28;18.77;;;;;;;7.31;29.07;100275.28;1746949;80;21076;-56
2022/03/19 11:25:30;;;;;;;29.35;17.52;;;;;;;7.35;29.58;100266.28;1743039;80;21036;-56
2022/03/19 11:28:04;;;;;;;33.20;16.50;;;;;;;7.45;29.91;100275.32;1746349;80;21076;-56
2022/03/19 11:30:37;;;;;;;36.83;18.40;;;;;;;7.25;27.62;100282.83;1743141;82;21056;-56
2022/03/19 11:33:19;;;;;;;29.00;16.62;;;;;;;7.28;27.34;100279.73;1741938;81;21676;-56